Time;durP1;ratioP1;P1;durP2;ratioP2;P2;SDS_P1;SDS_P2;PMS_P1;PMS_P2;Temp;Humidity;BMP_temperature;BMP_pressure;BME280_temperature;BME280_humidity;BME280_pressure;Samples;Min_cycle;Max_cycle;Signal;HPM_P1;HPM_P2
2024/03/29 00:00:06;;;;;;;0.90;0.70;;;3.80;94.30;;;;;;2016700;29;20251;-67
2024/03/29 00:01:07;;;;;;;0.82;0.60;;;3.70;94.80;;;;;;2023051;29;20616;-67
2024/03/29 00:02:08;;;;;;;1.97;0.73;;;3.80;94.80;;;;;;2023892;29;20189;-67
2024/03/29 00:03:10;;;;;;;1.60;0.60;;;3.80;94.90;;;;;;2023229;29;20204;-67
2024/03/29 00:04:10;;;;;;;1.25;0.70;;;3.80;94.00;;;;;;2032319;29;20256;-67
2024/03/29 00:05:11;;;;;;;0.70;0.57;;;3.80;94.50;;;;;;2023712;29;20221;-67
2024/03/29 00:06:12;;;;;;;1.80;0.60;;;3.70;94.90;;;;;;2023486;29;20575;-67
2024/03/29 00:07:12;;;;;;;2.97;1.03;;;3.70;95.10;;;;;;2024102;29;20271;-67
2024/03/29 00:08:13;;;;;;;0.90;0.70;;;3.70;94.60;;;;;;2016213;29;20200;-67
2024/03/29 00:09:13;;;;;;;2.00;0.80;;;3.60;94.70;;;;;;2022303;29;20221;-67
2024/03/29 00:10:14;;;;;;;1.87;0.60;;;3.60;94.90;;;;;;2024183;29;20213;-67
2024/03/29 00:11:15;;;;;;;0.80;0.60;;;3.60;95.50;;;;;;2024039;29;20661;-67
2024/03/29 00:12:15;;;;;;;2.03;0.73;;;3.60;95.50;;;;;;2023244;29;20247;-67
2024/03/29 00:13:16;;;;;;;0.67;0.60;;;3.60;96.00;;;;;;2023663;29;20193;-67
2024/03/29 00:14:17;;;;;;;1.67;0.70;;;3.50;95.90;;;;;;2023354;29;20189;-67
2024/03/29 00:15:17;;;;;;;1.23;0.70;;;3.50;95.70;;;;;;2024898;29;20216;-67
2024/03/29 00:16:18;;;;;;;1.03;0.60;;;3.50;96.10;;;;;;2017433;29;20326;-67
2024/03/29 00:17:19;;;;;;;1.77;0.77;;;3.50;95.40;;;;;;2015622;29;20740;-67
2024/03/29 00:18:20;;;;;;;1.37;0.70;;;3.50;96.20;;;;;;2022774;29;20199;-67
2024/03/29 00:19:21;;;;;;;1.47;0.77;;;3.50;96.40;;;;;;2022671;29;21281;-67
2024/03/29 00:20:23;;;;;;;1.23;0.83;;;3.40;96.80;;;;;;2015875;29;20313;-67
2024/03/29 00:21:24;;;;;;;1.98;0.82;;;3.30;96.80;;;;;;2022149;29;20243;-67
2024/03/29 00:22:25;;;;;;;1.30;0.90;;;3.30;96.50;;;;;;2027161;29;20240;-67
2024/03/29 00:23:26;;;;;;;1.43;0.80;;;3.30;96.90;;;;;;2028846;29;20231;-67
2024/03/29 00:24:27;;;;;;;0.52;0.52;;;3.30;96.90;;;;;;2028357;29;20239;-67
2024/03/29 00:25:27;;;;;;;2.30;0.70;;;3.20;97.30;;;;;;2025754;29;20232;-67
2024/03/29 00:26:28;;;;;;;0.90;0.80;;;3.20;97.70;;;;;;2025857;29;20234;-67
2024/03/29 00:27:29;;;;;;;1.00;0.90;;;3.20;97.60;;;;;;2022370;29;20237;-67
2024/03/29 00:28:30;;;;;;;1.15;0.70;;;3.20;97.70;;;;;;2031867;29;20242;-67
2024/03/29 00:29:31;;;;;;;0.60;0.60;;;3.10;97.50;;;;;;2030076;29;20296;-67
2024/03/29 00:30:32;;;;;;;1.10;0.73;;;3.20;97.60;;;;;;2025240;29;20727;-67
2024/03/29 00:31:33;;;;;;;0.87;0.87;;;3.10;97.70;;;;;;2022510;29;20319;-67
2024/03/29 00:32:34;;;;;;;0.77;0.67;;;3.10;97.90;;;;;;2035590;29;20504;-67
2024/03/29 00:33:35;;;;;;;1.30;0.70;;;3.00;98.20;;;;;;2030724;29;20654;-67
2024/03/29 00:34:35;;;;;;;1.60;0.73;;;3.00;98.50;;;;;;2024733;29;20228;-67
2024/03/29 00:35:36;;;;;;;1.97;0.70;;;3.00;98.20;;;;;;2024037;29;20256;-67
2024/03/29 00:36:37;;;;;;;1.57;1.00;;;2.90;98.40;;;;;;2026183;29;20319;-67
2024/03/29 00:37:37;;;;;;;0.60;0.60;;;3.00;98.00;;;;;;2023258;29;20224;-67
2024/03/29 00:38:38;;;;;;;0.80;0.80;;;3.00;97.90;;;;;;2024252;29;20306;-67
2024/03/29 00:39:38;;;;;;;0.87;0.60;;;3.00;98.40;;;;;;2022017;29;20792;-67
2024/03/29 00:40:39;;;;;;;0.70;0.50;;;2.90;98.40;;;;;;2033328;29;20331;-67
2024/03/29 00:41:40;;;;;;;1.67;0.77;;;2.90;98.40;;;;;;2022562;29;20314;-67
2024/03/29 00:42:40;;;;;;;1.40;0.87;;;2.90;98.70;;;;;;2026016;29;20328;-67
2024/03/29 00:43:41;;;;;;;0.93;0.70;;;2.90;99.10;;;;;;2023268;29;20315;-67
2024/03/29 00:44:43;;;;;;;0.83;0.70;;;2.80;99.20;;;;;;2031619;29;20236;-67
2024/03/29 00:45:44;;;;;;;0.82;0.80;;;2.80;99.30;;;;;;2037683;29;20235;-67
2024/03/29 00:46:44;;;;;;;1.83;0.70;;;2.80;99.40;;;;;;2031765;29;20240;-67
2024/03/29 00:47:45;;;;;;;0.70;0.70;;;2.80;99.30;;;;;;2030229;29;20669;-67
2024/03/29 00:48:47;;;;;;;1.13;0.53;;;2.80;99.00;;;;;;2032863;29;20227;-67
2024/03/29 00:49:47;;;;;;;0.90;0.70;;;2.90;98.80;;;;;;2021671;29;20764;-67
2024/03/29 00:50:50;;;;;;;1.80;0.60;;;2.80;98.90;;;;;;2023318;29;20241;-67
2024/03/29 00:51:50;;;;;;;0.93;0.80;;;2.80;99.00;;;;;;2019901;29;20279;-67
2024/03/29 00:52:51;;;;;;;0.97;0.80;;;2.90;98.50;;;;;;2023235;29;20303;-67
2024/03/29 00:53:54;;;;;;;0.60;0.60;;;2.80;98.40;;;;;;2036291;29;20223;-67
2024/03/29 00:54:54;;;;;;;1.17;0.93;;;2.80;98.30;;;;;;2029668;29;20236;-67
2024/03/29 00:55:55;;;;;;;1.63;0.90;;;2.80;98.30;;;;;;2022492;29;20229;-67
2024/03/29 00:56:56;;;;;;;1.73;0.93;;;2.80;98.50;;;;;;2015709;29;20230;-67
2024/03/29 00:57:57;;;;;;;1.80;0.80;;;2.70;98.60;;;;;;2022835;29;20299;-67
2024/03/29 00:58:57;;;;;;;3.90;0.90;;;2.80;99.10;;;;;;2037523;29;20711;-67
2024/03/29 00:59:58;;;;;;;1.33;0.90;;;2.80;99.20;;;;;;2023160;29;20241;-67
2024/03/29 01:00:58;;;;;;;1.17;0.70;;;2.70;99.10;;;;;;2015123;29;20232;-67
2024/03/29 01:01:59;;;;;;;1.63;0.77;;;2.70;99.00;;;;;;2029309;29;20603;-67
2024/03/29 01:03:00;;;;;;;0.60;0.60;;;2.70;99.00;;;;;;2037225;29;20223;-67
2024/03/29 01:04:01;;;;;;;2.03;1.00;;;2.70;98.80;;;;;;2013634;29;20296;-67
2024/03/29 01:05:02;;;;;;;0.87;0.80;;;2.70;98.70;;;;;;2006869;29;20222;-67
2024/03/29 01:06:04;;;;;;;0.98;0.75;;;2.70;98.70;;;;;;2030809;29;20203;-67
2024/03/29 01:07:04;;;;;;;0.77;0.60;;;2.70;98.70;;;;;;2031687;29;20189;-67
2024/03/29 01:08:05;;;;;;;1.93;0.70;;;2.70;98.70;;;;;;2024405;29;20237;-67
2024/03/29 01:09:06;;;;;;;1.27;0.73;;;2.70;98.60;;;;;;2026396;29;20230;-67
2024/03/29 01:10:08;;;;;;;3.78;0.80;;;2.70;99.10;;;;;;2030705;29;20191;-67
2024/03/29 01:11:09;;;;;;;1.27;0.90;;;2.80;99.00;;;;;;2030828;29;20220;-67
2024/03/29 01:12:10;;;;;;;0.90;0.70;;;2.70;98.90;;;;;;2023768;29;20200;-67
2024/03/29 01:13:11;;;;;;;1.05;0.60;;;2.80;99.40;;;;;;2031025;29;20219;-67
2024/03/29 01:14:12;;;;;;;0.60;0.60;;;2.80;99.50;;;;;;2024458;29;20676;-68
2024/03/29 01:15:12;;;;;;;2.47;0.70;;;2.80;99.90;;;;;;2017460;29;20254;-67
2024/03/29 01:16:13;;;;;;;3.13;0.60;;;2.80;99.90;;;;;;2013857;29;20193;-67
2024/03/29 01:17:14;;;;;;;0.70;0.60;;;2.90;99.30;;;;;;2021881;29;20211;-67
2024/03/29 01:18:14;;;;;;;0.60;0.60;;;2.90;99.00;;;;;;2040062;29;20307;-67
2024/03/29 01:19:15;;;;;;;1.10;0.60;;;2.90;99.90;;;;;;2037524;29;20179;-67
2024/03/29 01:20:16;;;;;;;1.43;0.70;;;3.00;99.90;;;;;;2033296;29;20872;-67
2024/03/29 01:21:17;;;;;;;0.70;0.60;;;3.00;99.90;;;;;;2030132;29;20200;-67
2024/03/29 01:22:18;;;;;;;0.70;0.50;;;3.00;99.90;;;;;;2032188;29;20278;-68
2024/03/29 01:23:19;;;;;;;1.27;0.70;;;3.00;99.70;;;;;;2024347;29;20574;-67
2024/03/29 01:24:19;;;;;;;1.07;0.50;;;3.10;98.80;;;;;;2025026;29;20191;-68
2024/03/29 01:25:21;;;;;;;0.53;0.53;;;3.20;99.10;;;;;;2024078;29;22810;-67
2024/03/29 01:26:22;;;;;;;0.63;0.60;;;3.30;98.50;;;;;;2022428;29;20240;-67
2024/03/29 01:27:22;;;;;;;0.47;0.47;;;3.40;97.60;;;;;;2030629;29;20262;-67
2024/03/29 01:28:23;;;;;;;1.30;0.90;;;3.40;96.50;;;;;;2032281;29;20326;-67
2024/03/29 01:29:23;;;;;;;1.60;0.50;;;3.50;96.10;;;;;;2021613;29;20373;-67
2024/03/29 01:30:24;;;;;;;1.70;0.73;;;3.50;95.20;;;;;;2024005;29;21107;-67
2024/03/29 01:31:25;;;;;;;0.60;0.60;;;3.60;95.30;;;;;;2029704;29;20280;-67
2024/03/29 01:32:26;;;;;;;2.65;0.70;;;3.70;94.70;;;;;;2031317;29;20259;-67
2024/03/29 01:33:28;;;;;;;0.87;0.60;;;3.70;94.80;;;;;;2030120;29;20231;-67
2024/03/29 01:34:28;;;;;;;0.43;0.43;;;3.80;94.10;;;;;;2023179;29;20244;-67
2024/03/29 01:35:29;;;;;;;0.70;0.40;;;3.80;93.30;;;;;;2015515;29;20243;-67
2024/03/29 01:36:30;;;;;;;0.57;0.50;;;3.90;92.80;;;;;;2022748;29;20604;-67
2024/03/29 01:37:30;;;;;;;1.03;0.60;;;3.90;92.20;;;;;;2021778;29;20241;-67
2024/03/29 01:38:31;;;;;;;3.13;0.50;;;4.00;92.40;;;;;;2022665;29;20683;-67
2024/03/29 01:39:32;;;;;;;0.63;0.63;;;4.00;92.10;;;;;;2021844;29;20313;-67
2024/03/29 01:40:32;;;;;;;1.37;0.50;;;4.10;91.80;;;;;;2022521;29;20241;-67
2024/03/29 01:41:33;;;;;;;0.40;0.40;;;4.10;91.50;;;;;;2026165;29;20320;-67
2024/03/29 01:42:34;;;;;;;1.17;0.80;;;4.20;91.30;;;;;;2020574;29;20229;-67
2024/03/29 01:43:34;;;;;;;1.30;0.70;;;4.20;91.00;;;;;;2013888;29;20230;-67
2024/03/29 01:44:36;;;;;;;1.10;0.60;;;4.20;90.60;;;;;;2027104;29;20228;-67
2024/03/29 01:45:42;;;;;;;1.60;0.60;;;4.30;90.00;;;;;;2036525;29;20232;-67
2024/03/29 01:46:44;;;;;;;0.60;0.60;;;4.30;89.90;;;;;;2030416;29;20232;-67
2024/03/29 01:47:46;;;;;;;0.50;0.50;;;4.30;90.30;;;;;;2020734;29;20232;-67
2024/03/29 01:48:47;;;;;;;0.80;0.55;;;4.30;90.70;;;;;;2027549;29;20264;-67
2024/03/29 01:49:47;;;;;;;1.13;0.40;;;4.30;89.50;;;;;;2024944;29;20702;-67
2024/03/29 01:50:49;;;;;;;0.60;0.40;;;4.40;90.40;;;;;;2034216;29;20368;-67
2024/03/29 01:51:50;;;;;;;0.40;0.40;;;4.40;90.40;;;;;;2030135;29;20252;-67
2024/03/29 01:52:51;;;;;;;1.23;0.40;;;4.40;89.20;;;;;;2026156;29;20283;-67
2024/03/29 01:53:54;;;;;;;0.60;0.43;;;4.40;90.00;;;;;;2031878;29;20830;-67
2024/03/29 01:54:55;;;;;;;0.73;0.63;;;4.50;91.00;;;;;;2027428;29;20229;-67
2024/03/29 01:55:56;;;;;;;0.50;0.50;;;4.50;92.10;;;;;;2027043;29;20248;-68
2024/03/29 01:56:57;;;;;;;0.60;0.50;;;4.40;90.50;;;;;;2023794;29;20613;-67
2024/03/29 01:57:58;;;;;;;0.50;0.50;;;4.40;91.10;;;;;;2025631;29;20221;-67
2024/03/29 01:58:59;;;;;;;0.40;0.40;;;4.40;88.80;;;;;;2024943;29;20220;-67
2024/03/29 02:00:00;;;;;;;0.50;0.50;;;4.50;87.60;;;;;;2022046;29;20222;-67
2024/03/29 02:01:01;;;;;;;0.50;0.50;;;4.50;87.60;;;;;;2024284;29;20248;-66
2024/03/29 02:02:03;;;;;;;1.15;0.50;;;4.50;86.10;;;;;;2022857;29;20239;-67
2024/03/29 02:03:09;;;;;;;0.88;0.40;;;4.50;86.00;;;;;;2032650;29;20189;-67
2024/03/29 02:04:10;;;;;;;1.50;0.57;;;4.60;85.20;;;;;;2039997;29;20195;-67
2024/03/29 02:05:10;;;;;;;0.40;0.35;;;4.70;90.50;;;;;;2029304;29;20204;-67
2024/03/29 02:06:12;;;;;;;1.27;0.60;;;4.50;88.70;;;;;;2024159;29;20185;-67
2024/03/29 02:07:13;;;;;;;0.45;0.45;;;4.60;91.00;;;;;;2029425;29;20700;-67
2024/03/29 02:08:15;;;;;;;0.75;0.45;;;4.50;90.20;;;;;;2028620;29;20581;-67
2024/03/29 02:09:16;;;;;;;0.40;0.40;;;4.50;91.30;;;;;;2028110;29;20197;-67
2024/03/29 02:10:17;;;;;;;1.17;0.50;;;4.40;91.10;;;;;;2024684;29;20212;-67
2024/03/29 02:11:18;;;;;;;1.33;0.40;;;4.50;88.80;;;;;;2023162;29;20606;-67
2024/03/29 02:12:18;;;;;;;0.52;0.50;;;4.40;89.80;;;;;;2030906;29;20199;-67
2024/03/29 02:13:19;;;;;;;2.60;0.43;;;4.40;89.20;;;;;;2025121;29;20187;-67
2024/03/29 02:14:20;;;;;;;0.90;0.53;;;4.40;91.40;;;;;;2021782;29;20272;-67
2024/03/29 02:15:20;;;;;;;0.40;0.40;;;4.40;91.30;;;;;;2021551;29;20242;-67
2024/03/29 02:16:21;;;;;;;1.40;0.47;;;4.40;91.30;;;;;;2033440;29;20749;-67
2024/03/29 02:17:22;;;;;;;0.77;0.50;;;4.40;91.10;;;;;;2029099;29;20239;-67
2024/03/29 02:18:22;;;;;;;1.00;0.50;;;4.30;91.10;;;;;;2023220;29;20301;-67
2024/03/29 02:19:23;;;;;;;0.60;0.60;;;4.30;90.20;;;;;;2022838;29;20318;-67
2024/03/29 02:20:25;;;;;;;0.70;0.60;;;4.20;90.60;;;;;;2016622;29;20261;-67
2024/03/29 02:21:25;;;;;;;0.50;0.50;;;4.20;90.90;;;;;;2021807;29;20228;-67
2024/03/29 02:22:29;;;;;;;0.60;0.60;;;4.20;90.50;;;;;;2030388;29;20243;-67
2024/03/29 02:23:32;;;;;;;0.63;0.50;;;4.10;90.20;;;;;;2038897;29;20588;-67
2024/03/29 02:24:33;;;;;;;0.70;0.65;;;4.10;90.80;;;;;;2036423;29;20232;-67
2024/03/29 02:25:35;;;;;;;0.40;0.40;;;4.00;90.50;;;;;;2025064;29;20229;-67
2024/03/29 02:26:38;;;;;;;0.50;0.50;;;4.10;89.30;;;;;;2030033;29;20215;-67
2024/03/29 02:27:39;;;;;;;0.40;0.40;;;4.10;87.80;;;;;;2026899;29;20233;-67
2024/03/29 02:28:40;;;;;;;1.10;0.40;;;4.10;89.10;;;;;;2029934;29;20315;-67
2024/03/29 02:29:41;;;;;;;0.70;0.70;;;4.10;89.30;;;;;;2037350;29;20808;-67
2024/03/29 02:30:41;;;;;;;0.63;0.47;;;4.20;90.40;;;;;;2022736;29;20815;-67
2024/03/29 02:31:42;;;;;;;1.23;0.40;;;4.20;90.70;;;;;;2021897;29;20247;-67
2024/03/29 02:32:43;;;;;;;0.40;0.40;;;4.30;90.50;;;;;;2031871;29;20240;-67
2024/03/29 02:33:44;;;;;;;0.68;0.52;;;4.20;89.10;;;;;;2031220;29;20320;-67
2024/03/29 02:34:44;;;;;;;0.50;0.50;;;4.20;88.60;;;;;;2026151;29;20286;-67
2024/03/29 02:35:45;;;;;;;2.10;0.60;;;4.30;88.60;;;;;;2022329;29;20229;-67
2024/03/29 02:36:46;;;;;;;3.50;0.50;;;4.30;88.50;;;;;;2034127;29;20239;-67
2024/03/29 02:37:46;;;;;;;0.30;0.30;;;4.30;88.40;;;;;;2036490;29;20316;-67
2024/03/29 02:38:47;;;;;;;0.50;0.50;;;4.40;89.00;;;;;;2034636;29;20295;-67
2024/03/29 02:39:48;;;;;;;0.40;0.40;;;4.40;90.00;;;;;;2028881;29;20315;-67
2024/03/29 02:40:48;;;;;;;0.93;0.50;;;4.40;90.30;;;;;;2032939;29;20239;-67
2024/03/29 02:41:49;;;;;;;2.07;0.50;;;4.40;89.30;;;;;;2029861;29;20232;-67
2024/03/29 02:42:50;;;;;;;0.40;0.40;;;4.40;88.80;;;;;;2024765;29;20663;-67
2024/03/29 02:43:51;;;;;;;1.15;0.73;;;4.40;89.70;;;;;;2023382;29;20233;-67
2024/03/29 02:44:52;;;;;;;1.03;0.50;;;4.40;90.00;;;;;;2032233;29;20233;-67
2024/03/29 02:45:53;;;;;;;0.80;0.63;;;4.40;90.10;;;;;;2023805;29;20225;-67
2024/03/29 02:46:53;;;;;;;0.53;0.47;;;4.40;90.60;;;;;;2018224;29;20226;-68
2024/03/29 02:47:54;;;;;;;0.63;0.43;;;4.40;90.80;;;;;;2023604;29;20231;-67
2024/03/29 02:48:55;;;;;;;0.53;0.53;;;4.50;91.10;;;;;;2040079;29;20232;-67
2024/03/29 02:49:55;;;;;;;2.13;0.70;;;4.50;91.20;;;;;;2038104;29;20628;-67
2024/03/29 02:50:56;;;;;;;0.57;0.47;;;4.60;91.10;;;;;;2041378;29;20247;-67
2024/03/29 02:51:57;;;;;;;0.50;0.50;;;4.60;91.00;;;;;;2029686;29;21212;-67
2024/03/29 02:52:58;;;;;;;0.67;0.53;;;4.70;90.90;;;;;;2022959;29;20533;-68
2024/03/29 02:53:58;;;;;;;1.20;0.60;;;4.60;90.70;;;;;;2023195;29;20326;-67
2024/03/29 02:54:59;;;;;;;0.50;0.50;;;4.60;91.10;;;;;;2023882;29;20317;-67
2024/03/29 02:55:59;;;;;;;0.57;0.57;;;4.60;91.90;;;;;;2030723;29;20220;-67
2024/03/29 02:57:00;;;;;;;1.47;0.60;;;4.50;92.50;;;;;;2021482;29;20222;-67
2024/03/29 02:58:01;;;;;;;0.60;0.60;;;4.50;92.40;;;;;;2021443;29;20229;-67
2024/03/29 02:59:02;;;;;;;1.80;0.60;;;4.50;92.70;;;;;;2030988;29;20267;-67
2024/03/29 03:00:05;;;;;;;2.35;0.73;;;4.40;93.00;;;;;;2022521;29;20178;-67
2024/03/29 03:01:08;;;;;;;1.15;0.90;;;4.40;93.30;;;;;;2016180;29;20337;-67
2024/03/29 03:02:09;;;;;;;2.38;1.55;;;4.50;93.00;;;;;;2024760;29;20216;-67
2024/03/29 03:03:09;;;;;;;1.10;1.00;;;4.40;93.30;;;;;;2027180;29;20204;-67
2024/03/29 03:04:10;;;;;;;1.23;0.90;;;4.30;93.40;;;;;;2014607;29;20209;-67
2024/03/29 03:05:11;;;;;;;2.97;1.10;;;4.30;93.70;;;;;;2019235;29;20212;-67
2024/03/29 03:06:11;;;;;;;1.50;1.00;;;4.30;93.80;;;;;;2033718;29;20238;-67
2024/03/29 03:11:10;;;;;;;1.15;0.80;;;4.50;95.00;;;;;;2027670;29;20235;-67
2024/03/29 03:12:10;;;;;;;1.00;0.90;;;4.50;94.40;;;;;;2036381;29;20189;-67
2024/03/29 03:13:11;;;;;;;0.90;0.70;;;4.50;94.20;;;;;;2030949;29;20250;-67
2024/03/29 03:14:12;;;;;;;1.00;0.70;;;4.50;94.20;;;;;;2021447;29;21548;-67
2024/03/29 03:15:12;;;;;;;1.50;0.70;;;4.40;94.60;;;;;;2029141;29;20209;-67
2024/03/29 03:16:13;;;;;;;0.60;0.60;;;4.30;94.80;;;;;;2025815;29;20196;-67
2024/03/29 03:17:14;;;;;;;0.53;0.50;;;4.40;95.10;;;;;;2031181;29;20241;-67
2024/03/29 03:18:15;;;;;;;0.60;0.60;;;4.40;95.10;;;;;;2029209;29;20197;-67
2024/03/29 03:19:15;;;;;;;0.50;0.50;;;4.40;95.00;;;;;;2026414;29;20177;-67
2024/03/29 03:20:16;;;;;;;0.40;0.40;;;4.40;95.00;;;;;;2015409;29;20189;-67
2024/03/29 03:21:17;;;;;;;0.97;0.57;;;4.40;95.10;;;;;;2019109;29;20732;-67
2024/03/29 03:22:17;;;;;;;0.50;0.50;;;4.40;95.20;;;;;;2022473;29;20202;-67
2024/03/29 03:23:18;;;;;;;0.70;0.60;;;4.40;95.10;;;;;;2025676;29;20293;-67
2024/03/29 03:24:19;;;;;;;0.43;0.43;;;4.40;95.40;;;;;;2017884;29;20197;-67
2024/03/29 03:25:20;;;;;;;0.50;0.50;;;4.40;95.40;;;;;;2025935;29;20458;-67
2024/03/29 03:26:21;;;;;;;1.10;0.60;;;4.40;95.40;;;;;;2016322;29;20245;-67
2024/03/29 03:27:23;;;;;;;0.75;0.52;;;4.30;95.00;;;;;;2017220;29;20324;-67
2024/03/29 03:28:24;;;;;;;0.50;0.50;;;4.30;95.20;;;;;;2021868;29;20222;-67
2024/03/29 03:29:25;;;;;;;0.50;0.50;;;4.30;95.20;;;;;;2032379;29;20248;-67
2024/03/29 03:30:25;;;;;;;0.50;0.50;;;4.30;95.80;;;;;;2028632;29;20479;-67
2024/03/29 03:31:26;;;;;;;0.50;0.50;;;4.30;95.60;;;;;;2032091;29;20236;-67
2024/03/29 03:32:26;;;;;;;0.77;0.57;;;4.30;95.50;;;;;;2020845;29;20732;-67
2024/03/29 03:33:27;;;;;;;0.77;0.50;;;4.40;95.10;;;;;;2024763;29;20591;-67
2024/03/29 03:34:28;;;;;;;1.80;0.70;;;4.40;95.20;;;;;;2029076;29;20288;-67
2024/03/29 03:35:28;;;;;;;0.57;0.53;;;4.40;95.00;;;;;;2023103;29;20236;-67
2024/03/29 03:36:29;;;;;;;0.40;0.40;;;4.40;94.90;;;;;;2021269;29;20285;-67
2024/03/29 03:37:30;;;;;;;1.33;0.60;;;4.50;94.90;;;;;;2038308;29;20703;-67
2024/03/29 03:38:32;;;;;;;0.60;0.43;;;4.50;94.80;;;;;;2030869;29;20228;-68
2024/03/29 03:39:33;;;;;;;0.73;0.52;;;4.50;94.70;;;;;;2016178;29;20323;-68
2024/03/29 03:40:34;;;;;;;0.50;0.50;;;4.60;94.70;;;;;;2014174;29;20253;-67
2024/03/29 03:41:35;;;;;;;2.35;0.50;;;4.60;94.40;;;;;;2023008;29;20333;-67
2024/03/29 03:42:36;;;;;;;0.50;0.50;;;4.60;94.10;;;;;;2030745;29;20229;-68
2024/03/29 03:43:36;;;;;;;0.53;0.53;;;4.50;94.30;;;;;;2033133;29;20232;-67
2024/03/29 03:44:37;;;;;;;0.70;0.60;;;4.50;94.60;;;;;;2033413;29;20720;-67
2024/03/29 03:45:39;;;;;;;0.80;0.57;;;4.50;94.30;;;;;;2038658;29;20641;-67
2024/03/29 03:46:40;;;;;;;0.40;0.40;;;4.50;94.00;;;;;;2029460;29;20235;-67
2024/03/29 03:47:40;;;;;;;0.50;0.40;;;4.50;94.10;;;;;;2024644;29;20902;-67
2024/03/29 03:48:41;;;;;;;0.63;0.50;;;4.60;94.00;;;;;;2033488;29;20323;-67
2024/03/29 03:49:42;;;;;;;0.50;0.50;;;4.70;94.50;;;;;;2030410;29;20228;-67
2024/03/29 03:50:42;;;;;;;0.63;0.50;;;4.60;92.60;;;;;;2023031;29;20281;-67
2024/03/29 03:51:44;;;;;;;0.43;0.40;;;4.60;92.60;;;;;;2021992;29;20233;-67
2024/03/29 03:52:44;;;;;;;0.47;0.47;;;4.60;87.00;;;;;;2020893;29;20313;-67
2024/03/29 03:53:45;;;;;;;0.57;0.33;;;4.70;86.50;;;;;;2022220;29;20257;-67
2024/03/29 03:54:46;;;;;;;0.40;0.40;;;4.80;87.30;;;;;;2021457;29;20252;-67
2024/03/29 03:55:46;;;;;;;0.47;0.40;;;4.80;85.50;;;;;;2023307;29;20733;-67
2024/03/29 03:56:47;;;;;;;0.63;0.40;;;5.00;78.80;;;;;;2029868;29;20248;-67
2024/03/29 03:57:48;;;;;;;0.50;0.50;;;5.10;74.70;;;;;;2036872;29;20680;-67
2024/03/29 03:58:48;;;;;;;0.30;0.30;;;5.30;75.50;;;;;;2029191;29;20228;-67
2024/03/29 03:59:52;;;;;;;0.53;0.50;;;5.30;76.70;;;;;;2021081;29;20237;-67
2024/03/29 04:00:53;;;;;;;2.03;0.50;;;5.30;78.80;;;;;;2030920;29;20232;-68
2024/03/29 04:01:54;;;;;;;0.40;0.40;;;5.40;83.30;;;;;;2025288;29;20232;-67
2024/03/29 04:02:56;;;;;;;0.50;0.50;;;5.40;84.00;;;;;;2014983;29;20238;-67
2024/03/29 04:03:57;;;;;;;0.30;0.30;;;5.30;85.70;;;;;;2024044;29;20812;-67
2024/03/29 04:04:57;;;;;;;0.70;0.47;;;5.30;79.80;;;;;;2030792;29;20283;-67
2024/03/29 04:06:03;;;;;;;0.40;0.40;;;5.30;81.40;;;;;;2031685;29;20225;-67
2024/03/29 04:07:03;;;;;;;0.40;0.40;;;5.30;80.10;;;;;;2023462;29;20225;-67
2024/03/29 04:08:05;;;;;;;1.23;0.40;;;5.40;79.50;;;;;;2017484;29;20225;-67
2024/03/29 04:09:05;;;;;;;1.27;0.50;;;5.50;81.00;;;;;;2021988;29;20222;-67
2024/03/29 04:10:06;;;;;;;0.40;0.40;;;5.50;77.90;;;;;;2021803;29;20182;-67
2024/03/29 04:11:07;;;;;;;0.30;0.30;;;5.60;78.70;;;;;;2015024;29;20210;-67
2024/03/29 04:12:08;;;;;;;0.40;0.40;;;5.50;77.00;;;;;;2020717;29;20429;-67
2024/03/29 04:13:08;;;;;;;0.40;0.40;;;5.50;77.50;;;;;;2029795;29;20177;-67
2024/03/29 04:14:09;;;;;;;0.40;0.40;;;5.50;75.90;;;;;;2023245;29;20186;-67
2024/03/29 04:15:10;;;;;;;0.40;0.40;;;5.40;77.60;;;;;;2020024;29;20286;-67
2024/03/29 04:16:10;;;;;;;0.93;0.40;;;5.40;75.00;;;;;;2023280;29;20185;-67
2024/03/29 04:17:12;;;;;;;0.40;0.40;;;5.60;68.50;;;;;;2021697;29;20827;-67
2024/03/29 04:18:12;;;;;;;0.50;0.50;;;5.60;70.40;;;;;;2031141;29;20195;-67
2024/03/29 04:19:13;;;;;;;0.40;0.40;;;5.70;78.50;;;;;;2029691;29;20192;-67
2024/03/29 04:20:14;;;;;;;0.43;0.43;;;5.70;82.00;;;;;;2023215;29;20185;-67
2024/03/29 04:21:15;;;;;;;0.87;0.43;;;5.70;76.50;;;;;;2016313;29;20221;-67
2024/03/29 04:22:15;;;;;;;2.50;0.47;;;5.60;78.40;;;;;;2013275;29;20602;-67
2024/03/29 04:23:16;;;;;;;0.30;0.30;;;5.60;75.00;;;;;;2027329;29;20196;-68
2024/03/29 04:24:16;;;;;;;0.40;0.40;;;5.50;72.60;;;;;;2029034;29;20185;-68
2024/03/29 04:25:17;;;;;;;0.37;0.37;;;5.40;71.90;;;;;;2023504;29;20206;-67
2024/03/29 04:26:18;;;;;;;0.93;0.50;;;5.50;69.00;;;;;;2023788;29;20584;-67
2024/03/29 04:27:19;;;;;;;0.40;0.40;;;5.60;68.80;;;;;;2024313;29;20208;-68
2024/03/29 04:28:20;;;;;;;0.40;0.40;;;5.60;73.00;;;;;;2032332;29;20765;-67
2024/03/29 04:29:21;;;;;;;0.40;0.40;;;5.60;69.60;;;;;;2030082;29;20316;-68
2024/03/29 04:30:21;;;;;;;0.23;0.23;;;5.70;73.70;;;;;;2021418;29;20237;-68
2024/03/29 04:31:22;;;;;;;0.70;0.30;;;5.80;68.50;;;;;;2022433;29;20316;-67
2024/03/29 04:32:23;;;;;;;1.10;0.43;;;5.90;65.00;;;;;;2029823;29;20327;-67
2024/03/29 04:33:25;;;;;;;0.40;0.40;;;5.90;65.20;;;;;;2022980;29;20269;-68
2024/03/29 04:34:25;;;;;;;0.55;0.40;;;6.00;64.10;;;;;;2015009;29;20261;-67
2024/03/29 04:35:26;;;;;;;1.37;0.47;;;6.00;64.10;;;;;;2021861;29;20673;-66
2024/03/29 04:36:27;;;;;;;0.30;0.30;;;6.00;66.30;;;;;;2029366;29;20236;-67
2024/03/29 04:37:27;;;;;;;0.70;0.47;;;6.00;65.10;;;;;;2028621;29;20232;-67
2024/03/29 04:38:28;;;;;;;0.40;0.40;;;6.10;65.10;;;;;;2028714;29;20232;-68
2024/03/29 04:39:29;;;;;;;0.40;0.40;;;6.10;64.80;;;;;;2032315;29;20255;-67
2024/03/29 04:40:30;;;;;;;0.50;0.50;;;6.20;64.50;;;;;;2025601;29;20245;-68
2024/03/29 04:41:34;;;;;;;0.30;0.30;;;6.20;64.60;;;;;;2025355;29;20348;-67
2024/03/29 04:42:34;;;;;;;0.40;0.40;;;6.10;65.60;;;;;;2023653;29;20237;-67
2024/03/29 04:43:35;;;;;;;0.40;0.40;;;6.20;65.60;;;;;;2025365;29;20240;-68
2024/03/29 04:44:36;;;;;;;0.53;0.53;;;6.20;64.30;;;;;;2029722;29;20232;-68
2024/03/29 04:45:36;;;;;;;0.40;0.40;;;6.20;62.90;;;;;;2032267;29;20234;-67
2024/03/29 04:46:37;;;;;;;0.50;0.40;;;6.30;63.30;;;;;;2028858;29;20701;-67
2024/03/29 04:47:38;;;;;;;0.73;0.40;;;6.20;67.00;;;;;;2039402;29;20259;-67
2024/03/29 04:48:41;;;;;;;0.50;0.50;;;6.20;71.80;;;;;;2036590;29;20244;-68
2024/03/29 04:49:42;;;;;;;0.85;0.50;;;6.00;72.40;;;;;;2025762;29;20233;-68
2024/03/29 04:50:42;;;;;;;0.30;0.30;;;5.80;73.20;;;;;;2013849;29;20257;-69
2024/03/29 04:51:43;;;;;;;0.40;0.40;;;5.70;71.80;;;;;;2016021;29;20231;-68
2024/03/29 04:52:44;;;;;;;0.30;0.30;;;5.60;71.90;;;;;;2027997;29;20314;-68
2024/03/29 04:53:45;;;;;;;0.57;0.40;;;5.50;71.20;;;;;;2039428;29;20268;-68
2024/03/29 04:54:45;;;;;;;0.50;0.50;;;5.60;68.30;;;;;;2030711;29;20237;-66
2024/03/29 04:55:48;;;;;;;0.50;0.50;;;5.70;67.20;;;;;;2024048;29;20614;-67
2024/03/29 04:56:48;;;;;;;0.70;0.32;;;5.70;66.10;;;;;;2021263;29;20221;-67
2024/03/29 04:57:49;;;;;;;0.40;0.40;;;5.70;63.80;;;;;;2025965;29;20247;-67
2024/03/29 04:58:50;;;;;;;0.40;0.40;;;5.90;64.30;;;;;;2032754;29;20236;-66
2024/03/29 04:59:50;;;;;;;0.40;0.30;;;5.90;62.00;;;;;;2039465;29;20232;-67
2024/03/29 05:00:52;;;;;;;0.30;0.30;;;6.10;61.30;;;;;;2029366;29;20606;-67
2024/03/29 05:01:55;;;;;;;0.43;0.38;;;6.10;59.90;;;;;;2023714;29;20345;-67
2024/03/29 05:02:55;;;;;;;0.45;0.30;;;6.20;59.10;;;;;;2014217;29;20378;-67
2024/03/29 05:03:56;;;;;;;0.30;0.30;;;6.30;60.00;;;;;;2013103;29;20841;-67
2024/03/29 05:04:58;;;;;;;0.57;0.30;;;6.30;59.80;;;;;;2005138;29;20234;-67
2024/03/29 05:05:58;;;;;;;0.40;0.40;;;6.30;60.50;;;;;;2005319;29;20732;-67
2024/03/29 05:06:59;;;;;;;1.63;0.50;;;6.40;57.90;;;;;;2021448;29;20229;-67
2024/03/29 05:08:00;;;;;;;0.47;0.40;;;6.40;57.10;;;;;;2023533;29;20233;-66
2024/03/29 05:09:01;;;;;;;0.20;0.20;;;6.50;57.20;;;;;;2021297;29;20253;-66
2024/03/29 05:10:06;;;;;;;0.63;0.40;;;6.50;56.00;;;;;;2018744;29;20308;-67
2024/03/29 05:11:07;;;;;;;0.30;0.30;;;6.60;55.50;;;;;;2029596;29;20724;-67
2024/03/29 05:12:08;;;;;;;0.50;0.40;;;6.70;56.70;;;;;;2034979;29;20200;-67
2024/03/29 05:13:09;;;;;;;0.30;0.30;;;6.70;54.10;;;;;;2021540;29;20670;-67
2024/03/29 05:14:10;;;;;;;0.60;0.60;;;6.80;54.10;;;;;;2013983;29;20211;-67
2024/03/29 05:15:11;;;;;;;0.60;0.40;;;6.90;55.40;;;;;;2021243;29;20204;-67
2024/03/29 05:16:12;;;;;;;0.40;0.32;;;6.90;53.90;;;;;;2020251;29;20182;-68
2024/03/29 05:17:12;;;;;;;0.30;0.30;;;6.90;54.70;;;;;;2014432;29;20272;-67
2024/03/29 05:18:13;;;;;;;0.30;0.30;;;6.90;54.10;;;;;;2024027;29;20699;-69
2024/03/29 05:19:15;;;;;;;0.67;0.40;;;6.90;54.00;;;;;;2029695;29;20279;-67
2024/03/29 05:20:15;;;;;;;0.40;0.40;;;7.00;55.00;;;;;;2035837;29;20195;-67
2024/03/29 05:21:16;;;;;;;0.50;0.50;;;7.00;54.20;;;;;;2036723;29;20278;-67
2024/03/29 05:22:17;;;;;;;0.30;0.30;;;7.10;54.10;;;;;;2021085;29;20213;-67
2024/03/29 05:23:17;;;;;;;0.87;0.50;;;7.10;53.30;;;;;;2020516;29;20674;-67
2024/03/29 05:24:18;;;;;;;0.80;0.60;;;7.20;52.90;;;;;;2020827;29;20667;-67
2024/03/29 05:25:19;;;;;;;0.30;0.30;;;7.20;54.50;;;;;;2015278;29;20226;-67